Time;durP1;ratioP1;P1;durP2;ratioP2;P2;SDS_P1;SDS_P2;PMS_P1;PMS_P2;Temp;Humidity;BMP_temperature;BMP_pressure;BME280_temperature;BME280_humidity;BME280_pressure;Samples;Min_cycle;Max_cycle;Signal;HPM_P1;HPM_P2
2021/12/29 00:01:41;;;;;;;20.50;8.17;;;;;;;;;;4913932;29;20320;-88
2021/12/29 00:04:10;;;;;;;6.97;2.50;;;;;;;;;;4917788;29;20220;-88
2021/12/29 00:06:38;;;;;;;4.40;3.57;;;;;;;;;;4918147;29;20218;-88
2021/12/29 00:09:07;;;;;;;11.13;4.07;;;;;;;;;;4918114;29;20247;-88
2021/12/29 00:11:38;;;;;;;5.00;3.67;;;;;;;;;;4918020;29;20269;-89
2021/12/29 00:14:07;;;;;;;7.23;3.33;;;;;;;;;;4918096;29;20276;-88
2021/12/29 00:16:36;;;;;;;3.87;2.33;;;;;;;;;;4917875;29;20269;-88
2021/12/29 00:19:26;;;;;;;4.60;3.83;;;;;;;;;;4918084;29;20304;-88
2021/12/29 00:21:54;;;;;;;14.03;4.83;;;;;;;;;;4918182;29;20244;-87
2021/12/29 00:24:23;;;;;;;6.30;3.23;;;;;;;;;;4917918;29;20264;-88
2021/12/29 00:26:51;;;;;;;7.73;4.90;;;;;;;;;;4918062;29;20215;-87
2021/12/29 00:29:20;;;;;;;4.00;2.57;;;;;;;;;;4917741;29;20251;-88
2021/12/29 00:31:49;;;;;;;10.67;5.60;;;;;;;;;;4917809;29;20213;-87
2021/12/29 00:34:17;;;;;;;4.23;2.70;;;;;;;;;;4917932;29;20233;-87
2021/12/29 00:36:47;;;;;;;11.90;4.47;;;;;;;;;;4917591;29;20309;-87
2021/12/29 00:39:15;;;;;;;5.80;3.00;;;;;;;;;;4917802;29;20220;-87
2021/12/29 00:41:44;;;;;;;8.80;5.70;;;;;;;;;;4917876;29;20220;-87
2021/12/29 00:44:13;;;;;;;8.50;5.23;;;;;;;;;;4917285;29;20239;-87
2021/12/29 00:46:41;;;;;;;6.23;2.87;;;;;;;;;;4917398;29;20236;-87
2021/12/29 00:49:10;;;;;;;10.67;5.27;;;;;;;;;;4917599;29;20260;-88
2021/12/29 00:51:38;;;;;;;9.07;3.90;;;;;;;;;;4917454;29;20213;-88
2021/12/29 00:54:08;;;;;;;9.50;5.97;;;;;;;;;;4917578;29;20261;-87
2021/12/29 00:56:38;;;;;;;4.83;3.57;;;;;;;;;;4917389;29;20228;-87
2021/12/29 00:59:06;;;;;;;10.60;4.33;;;;;;;;;;4917893;29;20240;-87
2021/12/29 01:01:35;;;;;;;8.73;4.30;;;;;;;;;;4903321;29;20229;-86
2021/12/29 01:04:04;;;;;;;4.97;3.20;;;;;;;;;;4898371;29;20309;-88
2021/12/29 01:06:33;;;;;;;9.60;3.43;;;;;;;;;;4898514;29;20218;-88
2021/12/29 01:09:01;;;;;;;6.40;4.13;;;;;;;;;;4898554;29;20213;-88
2021/12/29 01:11:31;;;;;;;5.83;3.53;;;;;;;;;;4898897;29;20210;-88
2021/12/29 01:14:00;;;;;;;6.30;3.53;;;;;;;;;;4898814;29;20226;-87
2021/12/29 01:16:37;;;;;;;1.80;1.70;;;;;;;;;;4898654;29;20205;-87
2021/12/29 01:19:08;;;;;;;18.27;3.70;;;;;;;;;;4898334;29;20242;-88
2021/12/29 01:21:37;;;;;;;8.03;3.63;;;;;;;;;;4898426;29;20238;-87
2021/12/29 01:24:06;;;;;;;7.67;4.83;;;;;;;;;;4898762;29;20241;-88
2021/12/29 01:26:36;;;;;;;14.97;6.57;;;;;;;;;;4898074;29;20300;-88
2021/12/29 01:29:05;;;;;;;7.13;4.80;;;;;;;;;;4898239;29;20233;-88
2021/12/29 01:31:35;;;;;;;4.57;2.57;;;;;;;;;;4898005;29;20238;-88
2021/12/29 01:34:05;;;;;;;13.50;5.50;;;;;;;;;;4898230;29;20229;-87
2021/12/29 01:36:33;;;;;;;4.33;3.50;;;;;;;;;;4898298;29;20229;-88
2021/12/29 01:39:03;;;;;;;5.00;3.53;;;;;;;;;;4898518;29;20261;-87
2021/12/29 01:41:31;;;;;;;4.90;3.70;;;;;;;;;;4898518;29;20215;-88
2021/12/29 01:44:01;;;;;;;6.20;4.10;;;;;;;;;;4901831;29;20248;-88
2021/12/29 01:46:30;;;;;;;7.83;4.07;;;;;;;;;;4901867;29;20218;-88
2021/12/29 01:48:58;;;;;;;2.83;2.10;;;;;;;;;;4901723;29;20217;-88
2021/12/29 01:51:29;;;;;;;9.47;5.20;;;;;;;;;;4901692;29;20218;-87
2021/12/29 01:54:14;;;;;;;4.53;3.60;;;;;;;;;;4901119;29;20238;-87
2021/12/29 01:56:45;;;;;;;7.10;3.80;;;;;;;;;;4901559;29;20220;-87
2021/12/29 01:59:15;;;;;;;5.37;4.37;;;;;;;;;;4901642;29;20216;-88
2021/12/29 02:01:45;;;;;;;10.23;3.70;;;;;;;;;;4901454;29;20207;-88
2021/12/29 02:04:14;;;;;;;3.60;2.60;;;;;;;;;;4901130;29;20238;-87
2021/12/29 02:06:42;;;;;;;3.93;2.50;;;;;;;;;;4901534;29;20214;-87
2021/12/29 02:09:11;;;;;;;3.17;2.87;;;;;;;;;;4901324;29;20240;-87
2021/12/29 02:11:42;;;;;;;5.63;2.93;;;;;;;;;;4901145;29;20216;-87
2021/12/29 02:14:10;;;;;;;7.37;1.57;;;;;;;;;;4901342;29;20241;-88
2021/12/29 02:16:40;;;;;;;3.60;2.63;;;;;;;;;;4900900;29;20280;-87
2021/12/29 02:19:11;;;;;;;2.10;1.83;;;;;;;;;;4901020;29;20254;-87
2021/12/29 02:21:42;;;;;;;1.90;1.77;;;;;;;;;;4901372;29;20219;-88
2021/12/29 02:24:23;;;;;;;3.30;3.00;;;;;;;;;;4901259;29;20214;-88
2021/12/29 02:26:52;;;;;;;3.13;2.20;;;;;;;;;;4894137;29;20294;-87
2021/12/29 02:29:20;;;;;;;9.60;5.10;;;;;;;;;;4901155;29;20222;-88
2021/12/29 02:31:50;;;;;;;1.70;1.60;;;;;;;;;;4900632;29;20212;-88
2021/12/29 02:34:20;;;;;;;3.83;2.17;;;;;;;;;;4901291;29;20194;-88
2021/12/29 02:36:50;;;;;;;3.03;2.50;;;;;;;;;;4900774;29;20219;-88
2021/12/29 02:39:19;;;;;;;10.10;3.63;;;;;;;;;;4900942;29;20209;-87
2021/12/29 02:41:51;;;;;;;2.87;2.33;;;;;;;;;;4900910;29;20306;-89
2021/12/29 02:44:24;;;;;;;1.67;1.57;;;;;;;;;;4900712;29;20218;-87
2021/12/29 02:46:53;;;;;;;0.83;0.83;;;;;;;;;;4900690;29;20203;-88
2021/12/29 02:49:24;;;;;;;4.57;2.10;;;;;;;;;;4900609;29;20218;-88
2021/12/29 02:51:53;;;;;;;1.47;1.37;;;;;;;;;;4900394;29;20234;-88
2021/12/29 02:54:23;;;;;;;2.57;0.83;;;;;;;;;;4900640;29;20204;-88
2021/12/29 02:56:54;;;;;;;5.20;2.40;;;;;;;;;;4899916;29;20233;-88
2021/12/29 02:59:23;;;;;;;5.53;1.83;;;;;;;;;;4900331;29;20220;-88
2021/12/29 03:01:54;;;;;;;1.47;1.43;;;;;;;;;;4916989;29;20290;-88
2021/12/29 03:04:23;;;;;;;1.90;1.20;;;;;;;;;;4919118;29;20223;-88
2021/12/29 03:06:51;;;;;;;10.20;1.50;;;;;;;;;;4918853;29;20210;-89
2021/12/29 03:09:21;;;;;;;19.10;2.80;;;;;;;;;;4919384;29;20219;-88
2021/12/29 03:11:50;;;;;;;3.60;1.60;;;;;;;;;;4919296;29;20214;-88
2021/12/29 03:14:20;;;;;;;1.20;1.13;;;;;;;;;;4919245;29;20299;-87
2021/12/29 03:16:49;;;;;;;6.80;4.97;;;;;;;;;;4918747;29;20233;-88
2021/12/29 03:19:17;;;;;;;10.30;5.07;;;;;;;;;;4918382;29;20269;-87
2021/12/29 03:21:47;;;;;;;2.93;2.63;;;;;;;;;;4919073;29;20263;-88
2021/12/29 03:24:18;;;;;;;8.70;3.27;;;;;;;;;;4918870;29;20205;-88
2021/12/29 03:26:49;;;;;;;11.17;5.70;;;;;;;;;;4919048;29;20206;-88
2021/12/29 03:29:17;;;;;;;6.73;4.17;;;;;;;;;;4918610;29;20321;-88
2021/12/29 03:31:46;;;;;;;8.10;4.07;;;;;;;;;;4918474;29;20213;-88
2021/12/29 03:34:16;;;;;;;0.60;0.60;;;;;;;;;;4918134;29;20210;-88
2021/12/29 03:36:44;;;;;;;10.37;4.27;;;;;;;;;;4908451;29;20310;-88
2021/12/29 03:39:13;;;;;;;3.80;2.53;;;;;;;;;;4907150;29;20269;-87
2021/12/29 03:41:42;;;;;;;8.93;4.00;;;;;;;;;;4913955;29;20262;-88
2021/12/29 03:44:12;;;;;;;6.13;1.97;;;;;;;;;;4918352;29;20301;-88
2021/12/29 03:46:40;;;;;;;2.90;2.60;;;;;;;;;;4918704;29;20219;-88
2021/12/29 03:49:10;;;;;;;4.60;3.30;;;;;;;;;;4918254;29;20232;-88
2021/12/29 03:51:38;;;;;;;4.77;2.17;;;;;;;;;;4918806;29;20240;-88
2021/12/29 03:54:07;;;;;;;1.53;1.43;;;;;;;;;;4918465;29;20217;-88
2021/12/29 03:56:35;;;;;;;12.07;4.17;;;;;;;;;;4918352;29;20236;-88
2021/12/29 03:59:04;;;;;;;12.33;4.20;;;;;;;;;;4918278;29;20235;-88
2021/12/29 04:01:34;;;;;;;9.00;2.70;;;;;;;;;;4918166;29;20238;-88
2021/12/29 04:04:02;;;;;;;8.50;2.33;;;;;;;;;;4918123;29;20234;-88
2021/12/29 04:06:31;;;;;;;12.00;3.93;;;;;;;;;;4917952;29;20215;-88
2021/12/29 04:08:59;;;;;;;0.80;0.80;;;;;;;;;;4918246;29;20241;-88
2021/12/29 04:11:28;;;;;;;1.60;1.50;;;;;;;;;;4917995;29;20379;-89
2021/12/29 04:13:56;;;;;;;2.47;2.30;;;;;;;;;;4918108;29;20299;-88
2021/12/29 04:16:25;;;;;;;1.10;1.00;;;;;;;;;;4917978;29;20277;-88
2021/12/29 04:19:14;;;;;;;9.23;3.10;;;;;;;;;;4917824;29;20262;-88
2021/12/29 04:21:43;;;;;;;6.93;2.30;;;;;;;;;;4918046;29;20211;-88
2021/12/29 04:24:11;;;;;;;3.17;2.30;;;;;;;;;;4917855;29;20213;-87
2021/12/29 04:26:40;;;;;;;6.00;2.10;;;;;;;;;;4918055;29;20199;-87
2021/12/29 04:29:10;;;;;;;2.17;1.33;;;;;;;;;;4917847;29;20211;-88
2021/12/29 04:31:38;;;;;;;6.70;2.80;;;;;;;;;;4917861;29;20252;-88
2021/12/29 04:34:08;;;;;;;10.00;1.97;;;;;;;;;;4917868;29;20249;-88
2021/12/29 04:36:37;;;;;;;6.53;1.87;;;;;;;;;;4917695;29;20246;-87
2021/12/29 04:39:06;;;;;;;6.83;2.60;;;;;;;;;;4917594;29;20243;-88
2021/12/29 04:41:34;;;;;;;1.47;1.37;;;;;;;;;;4917301;29;20206;-88
2021/12/29 04:44:03;;;;;;;8.63;1.90;;;;;;;;;;4917093;29;20248;-88
2021/12/29 04:46:38;;;;;;;1.20;1.10;;;;;;;;;;4917440;29;20319;-88
2021/12/29 04:49:12;;;;;;;3.00;2.77;;;;;;;;;;4917733;29;20216;-88
2021/12/29 04:51:47;;;;;;;8.67;3.50;;;;;;;;;;4917703;29;20288;-88
2021/12/29 04:54:16;;;;;;;8.53;2.53;;;;;;;;;;4917980;29;20292;-87
2021/12/29 04:56:44;;;;;;;6.87;2.50;;;;;;;;;;4909711;29;20288;-88
2021/12/29 04:59:14;;;;;;;6.67;2.73;;;;;;;;;;4917462;29;20241;-87
2021/12/29 05:01:44;;;;;;;6.03;1.90;;;;;;;;;;4917510;29;20209;-88
2021/12/29 05:04:20;;;;;;;3.97;2.40;;;;;;;;;;4917461;29;20232;-88
2021/12/29 05:09:34;;;;;;;6.73;2.40;;;;;;;;;;4917861;29;20197;-88
2021/12/29 05:12:03;;;;;;;2.80;1.37;;;;;;;;;;4917511;29;20218;-87
2021/12/29 05:14:31;;;;;;;0.63;0.63;;;;;;;;;;4917474;29;20247;-88
2021/12/29 05:17:02;;;;;;;1.93;1.83;;;;;;;;;;4918425;29;20260;-88
2021/12/29 05:19:32;;;;;;;11.53;2.57;;;;;;;;;;4921137;29;20337;-87
2021/12/29 05:22:01;;;;;;;17.43;3.20;;;;;;;;;;4921174;29;20209;-87
2021/12/29 05:24:30;;;;;;;1.53;1.10;;;;;;;;;;4921044;29;20294;-87
2021/12/29 05:26:59;;;;;;;10.93;4.67;;;;;;;;;;4920608;29;20261;-88
2021/12/29 05:29:27;;;;;;;19.30;3.50;;;;;;;;;;4921114;29;20218;-88
2021/12/29 05:31:56;;;;;;;10.37;3.47;;;;;;;;;;4920543;29;20242;-89
2021/12/29 05:34:24;;;;;;;9.47;2.60;;;;;;;;;;4920855;29;20233;-89
2021/12/29 05:36:54;;;;;;;10.27;3.10;;;;;;;;;;4920828;29;20261;-89
2021/12/29 05:39:23;;;;;;;1.57;1.47;;;;;;;;;;4920818;29;20242;-86
2021/12/29 05:41:51;;;;;;;4.83;2.07;;;;;;;;;;4920789;29;20220;-87
2021/12/29 05:44:19;;;;;;;1.60;1.50;;;;;;;;;;4920813;29;20245;-87
2021/12/29 05:46:48;;;;;;;15.57;3.57;;;;;;;;;;4921035;29;20210;-87
2021/12/29 05:49:17;;;;;;;18.20;4.43;;;;;;;;;;4920870;29;20210;-87
2021/12/29 05:51:46;;;;;;;6.67;2.43;;;;;;;;;;4920611;29;20213;-87
2021/12/29 05:54:16;;;;;;;7.13;2.03;;;;;;;;;;4920466;29;20276;-87
2021/12/29 05:56:44;;;;;;;3.30;1.43;;;;;;;;;;4912788;29;20226;-88
2021/12/29 05:59:13;;;;;;;1.50;1.40;;;;;;;;;;4920381;29;20269;-87
2021/12/29 06:01:43;;;;;;;15.03;4.27;;;;;;;;;;4920566;29;20221;-87
2021/12/29 06:04:12;;;;;;;17.67;6.30;;;;;;;;;;4920427;29;20312;-87
2021/12/29 06:06:40;;;;;;;11.07;2.70;;;;;;;;;;4920347;29;20323;-87
2021/12/29 06:09:09;;;;;;;6.93;3.43;;;;;;;;;;4920413;29;20218;-88
2021/12/29 06:11:38;;;;;;;15.77;3.57;;;;;;;;;;4920114;29;20247;-88
2021/12/29 06:14:09;;;;;;;5.93;2.13;;;;;;;;;;4920006;29;20225;-87
2021/12/29 06:16:37;;;;;;;1.27;1.17;;;;;;;;;;4920083;29;20223;-87
2021/12/29 06:19:05;;;;;;;1.00;1.00;;;;;;;;;;4919921;29;20246;-87
2021/12/29 06:21:34;;;;;;;25.80;5.40;;;;;;;;;;4920173;29;20237;-87
2021/12/29 06:24:03;;;;;;;4.43;1.03;;;;;;;;;;4920467;29;20234;-87
2021/12/29 06:26:31;;;;;;;7.73;2.57;;;;;;;;;;4919801;29;20207;-87
2021/12/29 06:29:01;;;;;;;6.43;2.00;;;;;;;;;;4919337;29;20262;-87
2021/12/29 06:31:29;;;;;;;1.80;1.30;;;;;;;;;;4920398;29;20247;-86
2021/12/29 06:33:58;;;;;;;0.90;0.90;;;;;;;;;;4919698;29;20215;-87
2021/12/29 06:36:26;;;;;;;0.50;0.50;;;;;;;;;;4919848;29;20237;-86
2021/12/29 06:38:55;;;;;;;23.57;2.37;;;;;;;;;;4919242;29;20269;-87
2021/12/29 06:41:23;;;;;;;5.70;1.63;;;;;;;;;;4919585;29;20257;-87
2021/12/29 06:43:52;;;;;;;12.10;5.20;;;;;;;;;;4920009;29;20231;-86
2021/12/29 06:46:21;;;;;;;3.40;2.00;;;;;;;;;;4901084;29;20244;-87
2021/12/29 06:48:50;;;;;;;12.97;4.33;;;;;;;;;;4900479;29;20214;-87
2021/12/29 06:51:19;;;;;;;8.43;3.37;;;;;;;;;;4900645;29;20220;-87
2021/12/29 06:53:47;;;;;;;6.37;3.13;;;;;;;;;;4901142;29;20214;-87
2021/12/29 06:56:16;;;;;;;7.33;4.00;;;;;;;;;;4901112;29;20218;-87
2021/12/29 06:58:44;;;;;;;9.33;4.43;;;;;;;;;;4900438;29;20298;-87
2021/12/29 07:01:13;;;;;;;17.57;5.57;;;;;;;;;;4900306;29;20231;-87
2021/12/29 07:03:44;;;;;;;11.17;5.17;;;;;;;;;;4900785;29;20233;-87
2021/12/29 07:06:12;;;;;;;2.20;2.07;;;;;;;;;;4900592;29;20214;-87
2021/12/29 07:08:41;;;;;;;8.50;3.03;;;;;;;;;;4900155;29;20231;-87
2021/12/29 07:11:09;;;;;;;2.40;2.20;;;;;;;;;;4900181;29;20301;-87
2021/12/29 07:13:38;;;;;;;2.40;1.97;;;;;;;;;;4900663;29;20210;-87
2021/12/29 07:16:06;;;;;;;1.53;1.40;;;;;;;;;;4900047;29;20241;-87
2021/12/29 07:18:35;;;;;;;7.17;2.27;;;;;;;;;;4899915;29;20239;-87
2021/12/29 07:21:05;;;;;;;2.00;1.67;;;;;;;;;;4900297;29;20262;-87
2021/12/29 07:23:33;;;;;;;6.20;2.47;;;;;;;;;;4900173;29;20250;-87
2021/12/29 07:26:02;;;;;;;11.67;3.37;;;;;;;;;;4900310;29;20269;-87
2021/12/29 07:28:30;;;;;;;4.67;2.00;;;;;;;;;;4900219;29;20201;-86
2021/12/29 07:31:01;;;;;;;1.40;1.03;;;;;;;;;;4900102;29;20198;-87
2021/12/29 07:33:29;;;;;;;6.97;3.07;;;;;;;;;;4899896;29;20305;-87
2021/12/29 07:35:58;;;;;;;0.80;0.80;;;;;;;;;;4899888;29;20204;-87
2021/12/29 07:38:32;;;;;;;3.47;1.73;;;;;;;;;;4899647;29;20262;-87
2021/12/29 07:41:01;;;;;;;7.77;3.13;;;;;;;;;;4899393;29;20218;-87
2021/12/29 07:43:29;;;;;;;2.03;1.23;;;;;;;;;;4899768;29;20214;-87
2021/12/29 07:45:58;;;;;;;12.30;2.50;;;;;;;;;;4899668;29;20207;-86
2021/12/29 07:48:33;;;;;;;5.20;2.63;;;;;;;;;;4899123;29;20234;-86
2021/12/29 07:51:09;;;;;;;1.30;1.20;;;;;;;;;;4899703;29;20213;-86
2021/12/29 07:53:44;;;;;;;0.77;0.77;;;;;;;;;;4899987;29;20259;-86
2021/12/29 07:56:13;;;;;;;0.63;0.63;;;;;;;;;;4899474;29;20200;-86
2021/12/29 07:58:45;;;;;;;0.60;0.60;;;;;;;;;;4899243;29;20242;-87
2021/12/29 08:01:32;;;;;;;1.43;1.33;;;;;;;;;;4899659;29;20234;-87
2021/12/29 08:04:10;;;;;;;3.40;1.47;;;;;;;;;;4900260;29;20238;-86
2021/12/29 08:06:45;;;;;;;3.03;1.47;;;;;;;;;;4900186;29;20290;-86
2021/12/29 08:09:16;;;;;;;3.23;0.90;;;;;;;;;;4899101;29;20255;-87
2021/12/29 08:11:46;;;;;;;0.60;0.60;;;;;;;;;;4899288;29;20218;-86
2021/12/29 08:14:18;;;;;;;0.60;0.60;;;;;;;;;;4899458;29;20237;-87
2021/12/29 08:16:51;;;;;;;1.10;1.10;;;;;;;;;;4899373;29;20221;-87
2021/12/29 08:19:20;;;;;;;1.03;1.03;;;;;;;;;;4898898;29;20261;-87
2021/12/29 08:21:56;;;;;;;0.80;0.80;;;;;;;;;;4899172;29;20195;-86
2021/12/29 08:24:27;;;;;;;0.50;0.50;;;;;;;;;;4899388;29;20216;-86
2021/12/29 08:26:58;;;;;;;2.03;1.87;;;;;;;;;;4899486;29;20219;-86
2021/12/29 08:29:30;;;;;;;0.53;0.53;;;;;;;;;;4899380;29;20294;-87
2021/12/29 08:32:05;;;;;;;0.80;0.80;;;;;;;;;;4899372;29;20225;-87
2021/12/29 08:34:38;;;;;;;3.10;2.53;;;;;;;;;;4899048;29;20208;-87
2021/12/29 08:37:09;;;;;;;0.60;0.60;;;;;;;;;;4899400;29;20216;-87
2021/12/29 08:39:41;;;;;;;0.60;0.60;;;;;;;;;;4898991;29;20229;-87
2021/12/29 08:42:13;;;;;;;4.80;2.67;;;;;;;;;;4899218;29;20191;-87
2021/12/29 08:44:54;;;;;;;2.67;1.73;;;;;;;;;;4899190;29;20195;-87
2021/12/29 08:47:23;;;;;;;6.73;1.83;;;;;;;;;;4898863;29;20217;-87
2021/12/29 08:49:54;;;;;;;1.23;1.20;;;;;;;;;;4898747;29;20242;-86
2021/12/29 08:52:35;;;;;;;3.23;2.47;;;;;;;;;;4902587;29;20239;-87
2021/12/29 08:55:15;;;;;;;9.93;2.50;;;;;;;;;;4902325;29;20211;-86
2021/12/29 08:57:49;;;;;;;7.47;4.10;;;;;;;;;;4903356;29;20204;-87
2021/12/29 09:00:20;;;;;;;8.30;2.70;;;;;;;;;;4902759;29;20201;-87
2021/12/29 09:02:51;;;;;;;4.17;2.00;;;;;;;;;;4902890;29;20233;-87
2021/12/29 09:05:20;;;;;;;3.30;0.80;;;;;;;;;;4902798;29;20238;-87
2021/12/29 09:07:54;;;;;;;1.40;0.97;;;;;;;;;;4902732;29;20218;-86
2021/12/29 09:10:27;;;;;;;1.43;1.33;;;;;;;;;;4902587;29;20216;-86
2021/12/29 09:12:58;;;;;;;9.17;2.60;;;;;;;;;;4902237;29;20213;-87
2021/12/29 09:15:29;;;;;;;9.97;4.37;;;;;;;;;;4902658;29;20227;-87
2021/12/29 09:18:06;;;;;;;3.93;2.43;;;;;;;;;;4902203;29;20203;-86
2021/12/29 09:20:45;;;;;;;7.83;3.40;;;;;;;;;;4901944;29;20261;-86
2021/12/29 09:23:19;;;;;;;6.87;3.37;;;;;;;;;;4902378;29;20220;-86
2021/12/29 09:25:52;;;;;;;1.90;1.80;;;;;;;;;;4902418;29;20214;-86
2021/12/29 09:28:22;;;;;;;4.67;3.07;;;;;;;;;;4902418;29;20202;-86
2021/12/29 09:30:58;;;;;;;4.23;3.47;;;;;;;;;;4902129;29;20209;-87
2021/12/29 09:33:27;;;;;;;7.60;3.43;;;;;;;;;;4902122;29;20213;-86
2021/12/29 09:36:02;;;;;;;6.33;3.60;;;;;;;;;;4901785;29;20217;-87
2021/12/29 09:38:35;;;;;;;10.83;3.00;;;;;;;;;;4901824;29;20235;-87
2021/12/29 09:41:08;;;;;;;7.13;3.50;;;;;;;;;;4901936;29;20224;-87
2021/12/29 09:43:44;;;;;;;5.27;2.97;;;;;;;;;;4900833;29;20235;-86
2021/12/29 09:46:17;;;;;;;8.67;4.30;;;;;;;;;;4893742;29;20240;-86
2021/12/29 09:48:47;;;;;;;7.63;3.37;;;;;;;;;;4900265;29;20207;-86
2021/12/29 09:51:24;;;;;;;11.57;4.17;;;;;;;;;;4893005;29;20210;-87
2021/12/29 09:54:00;;;;;;;8.53;3.73;;;;;;;;;;4895434;29;20216;-85
2021/12/29 09:56:33;;;;;;;9.40;4.10;;;;;;;;;;4898778;29;20226;-85
2021/12/29 09:59:11;;;;;;;14.93;3.87;;;;;;;;;;4899581;29;20312;-84
2021/12/29 10:02:11;;;;;;;6.90;3.63;;;;;;;;;;4893580;29;20226;-86
2021/12/29 10:11:53;;;;;;;6.67;4.53;;;;;;;;;;4900902;29;20258;-86
2021/12/29 10:14:34;;;;;;;4.17;3.30;;;;;;;;;;4896284;29;20268;-85
2021/12/29 10:17:15;;;;;;;8.80;5.40;;;;;;;;;;4896291;29;20239;-86
2021/12/29 10:19:53;;;;;;;7.20;4.13;;;;;;;;;;4897806;29;20265;-85
2021/12/29 10:22:25;;;;;;;8.67;4.90;;;;;;;;;;4898996;29;20224;-87
2021/12/29 10:25:13;;;;;;;9.17;5.17;;;;;;;;;;4898006;29;20230;-86
2021/12/29 10:28:21;;;;;;;6.40;3.47;;;;;;;;;;4896221;29;20222;-87
2021/12/29 10:31:04;;;;;;;10.20;3.60;;;;;;;;;;4896083;29;20228;-86
2021/12/29 10:33:50;;;;;;;8.50;3.73;;;;;;;;;;4899887;29;20242;-84
2021/12/29 10:36:35;;;;;;;5.13;4.43;;;;;;;;;;4896177;29;20300;-85
2021/12/29 10:39:10;;;;;;;4.43;2.90;;;;;;;;;;4892551;29;20285;-85
2021/12/29 10:45:01;;;;;;;8.80;5.07;;;;;;;;;;4898521;29;20210;-85
2021/12/29 10:47:33;;;;;;;4.83;2.90;;;;;;;;;;4896105;29;20210;-85
2021/12/29 10:50:06;;;;;;;12.30;5.67;;;;;;;;;;4894522;29;20211;-85
2021/12/29 10:52:38;;;;;;;6.73;5.27;;;;;;;;;;4903371;29;20204;-85
2021/12/29 10:55:11;;;;;;;9.40;6.43;;;;;;;;;;4900801;29;20288;-85
2021/12/29 10:58:04;;;;;;;11.00;6.70;;;;;;;;;;4896146;29;20209;-85
2021/12/29 11:00:58;;;;;;;8.03;5.83;;;;;;;;;;4890587;29;20244;-86
2021/12/29 11:03:42;;;;;;;9.77;6.33;;;;;;;;;;4900282;29;20231;-85
2021/12/29 11:06:19;;;;;;;9.40;6.60;;;;;;;;;;4895439;29;20233;-84
2021/12/29 11:08:52;;;;;;;11.43;6.70;;;;;;;;;;4896353;29;20242;-85
2021/12/29 11:11:27;;;;;;;7.90;6.17;;;;;;;;;;4905225;29;20213;-85
2021/12/29 11:14:07;;;;;;;3.00;2.53;;;;;;;;;;4891319;29;20220;-85
2021/12/29 11:16:42;;;;;;;8.87;6.80;;;;;;;;;;4894226;29;20243;-85
2021/12/29 11:19:13;;;;;;;6.47;5.73;;;;;;;;;;4902930;29;20243;-85
2021/12/29 11:21:47;;;;;;;9.73;7.30;;;;;;;;;;4882552;29;20309;-86
2021/12/29 11:24:23;;;;;;;7.17;5.13;;;;;;;;;;4880311;29;20230;-85
2021/12/29 11:26:57;;;;;;;8.90;6.40;;;;;;;;;;4880185;29;20219;-86
2021/12/29 11:29:30;;;;;;;6.10;5.60;;;;;;;;;;4880296;29;20267;-85
2021/12/29 11:32:07;;;;;;;11.20;7.63;;;;;;;;;;4881106;29;20219;-86
2021/12/29 11:34:41;;;;;;;12.53;8.10;;;;;;;;;;4875236;29;20215;-84
2021/12/29 11:37:25;;;;;;;8.63;7.37;;;;;;;;;;4876958;29;20252;-85
2021/12/29 11:39:55;;;;;;;7.70;6.73;;;;;;;;;;4877040;29;20245;-84
2021/12/29 11:42:32;;;;;;;8.03;7.23;;;;;;;;;;4871530;29;20226;-82
2021/12/29 11:45:01;;;;;;;7.80;5.97;;;;;;;;;;4883403;29;20222;-85
2021/12/29 11:47:33;;;;;;;7.67;4.93;;;;;;;;;;4880821;29;20297;-85
2021/12/29 11:50:04;;;;;;;27.13;6.67;;;;;;;;;;4877152;29;20230;-84
2021/12/29 11:52:46;;;;;;;8.43;7.53;;;;;;;;;;4883006;29;20206;-86
2021/12/29 11:55:19;;;;;;;11.87;8.13;;;;;;;;;;4882587;29;20221;-84
2021/12/29 11:57:48;;;;;;;8.07;7.27;;;;;;;;;;4882374;29;20219;-84
2021/12/29 12:00:18;;;;;;;9.67;6.93;;;;;;;;;;4876641;29;20227;-84
2021/12/29 12:02:50;;;;;;;12.20;6.97;;;;;;;;;;4879398;29;20268;-86
2021/12/29 12:05:26;;;;;;;5.73;5.10;;;;;;;;;;4887479;29;20207;-84
2021/12/29 12:08:07;;;;;;;8.90;5.90;;;;;;;;;;4876645;29;20310;-83
2021/12/29 12:10:37;;;;;;;12.50;8.37;;;;;;;;;;4877836;29;20207;-82
2021/12/29 12:13:06;;;;;;;13.87;8.23;;;;;;;;;;4881447;29;20212;-83
2021/12/29 12:15:36;;;;;;;10.57;8.23;;;;;;;;;;4889550;29;20223;-85
2021/12/29 12:18:09;;;;;;;10.07;9.00;;;;;;;;;;4878705;29;20221;-81
2021/12/29 12:20:42;;;;;;;11.67;8.33;;;;;;;;;;4889907;29;20332;-81
2021/12/29 12:23:25;;;;;;;11.63;8.20;;;;;;;;;;4896172;29;20213;-82
2021/12/29 12:25:54;;;;;;;11.70;10.17;;;;;;;;;;4902016;29;20253;-82
2021/12/29 12:28:25;;;;;;;9.73;7.67;;;;;;;;;;4897704;29;20297;-84
2021/12/29 12:30:57;;;;;;;11.23;8.27;;;;;;;;;;4898745;29;20236;-83
2021/12/29 12:33:29;;;;;;;12.13;10.57;;;;;;;;;;4905311;29;20221;-82
2021/12/29 12:36:07;;;;;;;11.60;9.87;;;;;;;;;;4898420;29;20274;-84
2021/12/29 12:38:37;;;;;;;9.13;6.73;;;;;;;;;;4893343;29;20213;-84
2021/12/29 12:41:07;;;;;;;7.03;6.17;;;;;;;;;;4894516;29;20230;-83
2021/12/29 12:43:37;;;;;;;13.23;9.90;;;;;;;;;;4897056;29;20225;-83
2021/12/29 12:46:12;;;;;;;13.10;10.27;;;;;;;;;;4891482;29;20294;-84
2021/12/29 12:48:42;;;;;;;16.47;12.10;;;;;;;;;;4902770;29;20237;-83
2021/12/29 12:51:16;;;;;;;16.13;11.20;;;;;;;;;;4897679;29;20237;-84
2021/12/29 12:53:50;;;;;;;15.87;11.50;;;;;;;;;;4898249;29;20218;-84
2021/12/29 12:56:22;;;;;;;14.63;10.13;;;;;;;;;;4894923;29;20221;-84
2021/12/29 12:59:02;;;;;;;;;;;;;;;;;;;;;
2021/12/29 13:01:46;;;;;;;14.00;9.33;;;;;;;;;;4895346;29;20233;-82
2021/12/29 13:04:18;;;;;;;10.67;7.70;;;;;;;;;;4900840;29;20267;-83
2021/12/29 13:06:59;;;;;;;9.80;7.47;;;;;;;;;;4909195;29;20278;-84
2021/12/29 13:09:33;;;;;;;10.63;6.37;;;;;;;;;;4897457;29;20208;-84
2021/12/29 13:12:12;;;;;;;9.07;7.13;;;;;;;;;;4901312;29;20207;-83
2021/12/29 13:14:45;;;;;;;11.73;9.80;;;;;;;;;;4903239;29;20300;-82
2021/12/29 13:17:18;;;;;;;13.07;9.53;;;;;;;;;;4900051;29;20293;-84
2021/12/29 13:19:50;;;;;;;14.10;9.87;;;;;;;;;;4896410;29;20213;-83
2021/12/29 13:22:29;;;;;;;13.20;10.97;;;;;;;;;;4893195;29;20266;-83
2021/12/29 13:25:05;;;;;;;19.17;11.67;;;;;;;;;;4896219;29;20293;-83
2021/12/29 13:27:34;;;;;;;13.63;10.40;;;;;;;;;;4895099;29;20277;-83
2021/12/29 13:30:07;;;;;;;8.77;7.87;;;;;;;;;;4896532;29;20221;-84
2021/12/29 13:32:55;;;;;;;15.43;11.30;;;;;;;;;;4894420;29;20232;-84
2021/12/29 13:35:29;;;;;;;14.20;11.83;;;;;;;;;;4895829;29;20213;-83
2021/12/29 13:37:59;;;;;;;14.00;11.30;;;;;;;;;;4897433;29;20221;-84
2021/12/29 13:40:30;;;;;;;12.63;8.17;;;;;;;;;;4900242;29;20295;-84
2021/12/29 13:43:01;;;;;;;12.93;9.77;;;;;;;;;;4898221;29;20219;-85
2021/12/29 13:45:34;;;;;;;17.13;14.07;;;;;;;;;;4896733;29;20269;-83
2021/12/29 13:48:04;;;;;;;10.97;9.87;;;;;;;;;;4900281;29;20318;-83
2021/12/29 13:50:34;;;;;;;13.53;10.40;;;;;;;;;;4904490;29;20304;-83
2021/12/29 13:53:09;;;;;;;19.47;11.50;;;;;;;;;;4898837;29;20217;-83
2021/12/29 13:55:44;;;;;;;18.97;14.50;;;;;;;;;;4898538;29;20216;-83
2021/12/29 13:58:22;;;;;;;14.40;12.27;;;;;;;;;;4894469;29;20218;-83
2021/12/29 16:25:51;;;;;;;9.43;6.03;;;;;;;;;;4896014;29;20239;-88
2021/12/29 16:28:32;;;;;;;5.00;4.50;;;;;;;;;;4892816;29;20215;-85
2021/12/29 16:31:00;;;;;;;9.57;6.73;;;;;;;;;;4888681;29;20274;-88
2021/12/29 16:33:32;;;;;;;4.77;2.93;;;;;;;;;;4890154;29;20208;-89
2021/12/29 16:36:00;;;;;;;5.70;3.73;;;;;;;;;;4893901;29;20210;-86
2021/12/29 16:38:29;;;;;;;1.93;1.83;;;;;;;;;;4898781;29;20270;-86
2021/12/29 16:40:59;;;;;;;9.47;4.80;;;;;;;;;;4898395;29;20219;-87
2021/12/29 16:43:29;;;;;;;10.37;5.47;;;;;;;;;;4892878;29;20221;-86
2021/12/29 16:46:00;;;;;;;14.67;6.20;;;;;;;;;;4899266;29;20204;-86
2021/12/29 16:48:29;;;;;;;10.77;4.77;;;;;;;;;;4898736;29;20204;-86
2021/12/29 16:50:57;;;;;;;14.70;6.30;;;;;;;;;;4899141;29;20208;-88
2021/12/29 16:53:26;;;;;;;11.00;6.40;;;;;;;;;;4899423;29;20214;-88
2021/12/29 16:55:54;;;;;;;6.37;5.33;;;;;;;;;;4899140;29;20214;-88
2021/12/29 16:58:24;;;;;;;13.83;6.43;;;;;;;;;;4899373;29;20227;-87
2021/12/29 17:00:53;;;;;;;14.90;6.67;;;;;;;;;;4898818;29;20302;-87
2021/12/29 17:03:22;;;;;;;25.13;9.93;;;;;;;;;;4898934;29;20231;-88
2021/12/29 17:05:51;;;;;;;21.60;7.50;;;;;;;;;;4898950;29;20218;-87
2021/12/29 17:08:19;;;;;;;19.77;7.97;;;;;;;;;;4899136;29;20215;-87
2021/12/29 17:10:49;;;;;;;15.77;6.57;;;;;;;;;;4899121;29;20235;-87
2021/12/29 17:13:17;;;;;;;5.73;3.07;;;;;;;;;;4902365;29;20241;-88
2021/12/29 17:15:47;;;;;;;36.97;11.17;;;;;;;;;;4902931;29;20291;-87
2021/12/29 17:18:19;;;;;;;15.80;7.77;;;;;;;;;;4921349;29;20238;-88
2021/12/29 17:20:48;;;;;;;16.27;6.00;;;;;;;;;;4921819;29;20210;-88
2021/12/29 17:23:16;;;;;;;14.70;4.77;;;;;;;;;;4921435;29;20255;-88
2021/12/29 17:25:46;;;;;;;26.70;10.43;;;;;;;;;;4920949;29;20253;-87
2021/12/29 17:28:14;;;;;;;22.57;7.00;;;;;;;;;;4921453;29;20215;-88
2021/12/29 17:30:42;;;;;;;34.57;6.57;;;;;;;;;;4920728;29;20237;-87
2021/12/29 17:33:12;;;;;;;23.33;14.20;;;;;;;;;;4921266;29;20203;-88
2021/12/29 17:35:41;;;;;;;18.17;6.30;;;;;;;;;;4921841;29;20246;-87
2021/12/29 17:38:09;;;;;;;32.13;10.63;;;;;;;;;;4921520;29;20210;-87
2021/12/29 17:40:38;;;;;;;23.13;5.87;;;;;;;;;;4921185;29;20231;-87
2021/12/29 17:43:06;;;;;;;27.80;9.20;;;;;;;;;;4920852;29;20262;-88